createdAt,value
2023-02-12T00:00:03.921Z,44.80
2023-02-12T00:01:03.649Z,44.10
2023-02-12T00:02:02.713Z,44.30
2023-02-12T00:03:02.700Z,44.80
2023-02-12T00:04:02.686Z,44.80
2023-02-12T00:05:02.647Z,43.30
2023-02-12T00:06:02.628Z,43.10
2023-02-12T00:07:02.575Z,44.40
2023-02-12T00:08:02.620Z,44.50
2023-02-12T00:09:02.621Z,44.30
2023-02-12T00:10:02.585Z,44.60
2023-02-12T00:11:02.571Z,44.60
2023-02-12T00:12:02.552Z,44.30
2023-02-12T00:13:02.552Z,43.60
2023-02-12T00:14:02.609Z,45.60
2023-02-12T00:15:02.528Z,44.70
2023-02-12T00:16:02.548Z,44.40
2023-02-12T00:17:02.548Z,43.80
2023-02-12T00:18:02.488Z,43.90
2023-02-12T00:19:02.653Z,45.60
2023-02-12T00:20:02.507Z,45.30
2023-02-12T00:21:02.512Z,44.80
2023-02-12T00:22:02.463Z,43.50
2023-02-12T00:23:02.481Z,45.30
2023-02-12T00:24:02.478Z,44.70
2023-02-12T00:25:02.430Z,46.10
2023-02-12T00:26:02.454Z,44.50
2023-02-12T00:27:02.464Z,44.40
2023-02-12T00:28:02.422Z,43.20
2023-02-12T00:29:02.454Z,45.20
2023-02-12T00:30:02.486Z,44.80
2023-02-12T00:31:02.493Z,44.00
2023-02-12T00:32:02.465Z,43.40
2023-02-12T00:33:02.372Z,44.90
2023-02-12T00:34:02.398Z,44.20
2023-02-12T00:35:02.390Z,43.30
2023-02-12T00:36:02.378Z,42.90
2023-02-12T00:37:02.381Z,43.10
2023-02-12T00:38:02.405Z,44.30
2023-02-12T00:39:02.431Z,44.30
2023-02-12T00:40:02.387Z,43.40
2023-02-12T00:41:02.356Z,43.00
2023-02-12T00:42:02.324Z,44.30
2023-02-12T00:43:02.317Z,43.60
2023-02-12T00:44:02.385Z,44.40
2023-02-12T00:45:02.329Z,44.20
2023-02-12T00:46:02.306Z,43.90
2023-02-12T00:47:02.370Z,43.70
2023-02-12T00:48:02.293Z,42.80
2023-02-12T00:49:02.362Z,43.90
2023-02-12T00:50:02.276Z,43.80
2023-02-12T00:51:02.271Z,44.00
2023-02-12T00:52:02.232Z,43.90
2023-02-12T00:53:02.216Z,43.80
2023-02-12T00:54:02.344Z,43.80
2023-02-12T00:55:02.253Z,43.60
2023-02-12T00:56:02.203Z,43.70
2023-02-12T00:57:02.216Z,44.10
2023-02-12T00:58:02.217Z,43.80
2023-02-12T00:59:02.218Z,44.50
2023-02-12T01:00:02.191Z,44.00
2023-02-12T01:01:02.205Z,44.60
2023-02-12T01:02:02.177Z,45.30
2023-02-12T01:03:02.201Z,43.40
2023-02-12T01:04:02.216Z,44.60
2023-02-12T01:05:02.244Z,44.60
2023-02-12T01:06:02.136Z,43.70
2023-02-12T01:07:02.122Z,44.60
2023-02-12T01:08:02.100Z,44.00
2023-02-12T01:09:02.138Z,42.70
2023-02-12T01:10:02.093Z,40.50
2023-02-12T01:11:02.129Z,40.00
2023-02-12T01:12:02.092Z,40.90
2023-02-12T01:13:02.294Z,39.80
2023-02-12T01:14:02.098Z,39.30
2023-02-12T01:15:02.127Z,39.30
2023-02-12T01:16:02.088Z,38.20
2023-02-12T01:17:02.084Z,38.10
2023-02-12T01:18:02.053Z,38.50
2023-02-12T01:19:02.083Z,39.30
2023-02-12T01:20:02.038Z,37.90
2023-02-12T01:21:02.019Z,38.00
2023-02-12T01:22:02.063Z,39.00
2023-02-12T01:23:02.070Z,39.10
2023-02-12T01:24:02.072Z,39.20
2023-02-12T01:25:02.027Z,39.80
2023-02-12T01:26:01.986Z,38.40
2023-02-12T01:27:01.993Z,40.10
2023-02-12T01:28:02.062Z,41.40
2023-02-12T01:29:02.051Z,42.00
2023-02-12T01:30:02.006Z,40.00
2023-02-12T01:31:02.045Z,41.10
2023-02-12T01:32:02.209Z,38.70
2023-02-12T01:33:01.953Z,40.00
2023-02-12T01:34:01.984Z,39.40
2023-02-12T01:35:02.018Z,39.60
2023-02-12T01:36:01.971Z,40.20
2023-02-12T01:37:01.931Z,38.70
2023-02-12T01:38:02.036Z,37.80
2023-02-12T01:39:01.944Z,37.50
2023-02-12T01:40:01.960Z,37.90
2023-02-12T01:41:01.897Z,38.00
2023-02-12T01:42:02.017Z,38.00
2023-02-12T01:43:01.866Z,37.40
2023-02-12T01:44:01.885Z,36.80
2023-02-12T01:45:01.875Z,38.00
2023-02-12T01:46:01.852Z,37.70
2023-02-12T01:47:02.845Z,36.40
2023-02-12T01:48:01.880Z,37.60
2023-02-12T01:49:02.128Z,36.40
2023-02-12T01:50:01.838Z,36.40
2023-02-12T01:51:01.816Z,36.20
2023-02-12T01:52:01.845Z,36.10
2023-02-12T01:53:01.792Z,36.70
2023-02-12T01:54:01.800Z,35.90
2023-02-12T01:55:01.802Z,36.70
2023-02-12T01:56:01.808Z,36.60
2023-02-12T01:57:01.762Z,36.80
2023-02-12T01:58:01.750Z,37.20
2023-02-12T01:59:01.762Z,37.30
2023-02-12T02:00:01.751Z,36.40
2023-02-12T02:01:01.728Z,36.80
2023-02-12T02:02:01.818Z,36.90
2023-02-12T02:03:01.873Z,36.60
2023-02-12T02:04:01.707Z,36.20
2023-02-12T02:05:01.708Z,36.90
2023-02-12T02:06:01.687Z,36.80
2023-02-12T02:07:01.690Z,35.90
2023-02-12T02:08:01.703Z,36.30
2023-02-12T02:09:01.688Z,36.10
2023-02-12T02:10:01.723Z,36.80
2023-02-12T02:11:01.654Z,36.00
2023-02-12T02:12:01.677Z,36.50
2023-02-12T02:13:01.664Z,35.90
2023-02-12T02:14:01.623Z,37.20
2023-02-12T02:15:01.648Z,37.40
2023-02-12T02:16:01.621Z,45.30
2023-02-12T02:17:01.603Z,42.40
2023-02-12T02:18:01.608Z,44.80
2023-02-12T02:19:01.665Z,43.40
2023-02-12T02:20:01.697Z,46.00
2023-02-12T02:21:01.568Z,45.40
2023-02-12T02:22:01.579Z,46.80
2023-02-12T02:23:01.569Z,45.00
2023-02-12T02:24:01.550Z,44.60
2023-02-12T02:25:01.582Z,44.70
2023-02-12T02:26:01.517Z,44.70
2023-02-12T02:27:01.506Z,42.60
2023-02-12T02:28:01.556Z,45.40
2023-02-12T02:29:01.509Z,45.70
2023-02-12T02:30:01.537Z,45.70
2023-02-12T02:31:01.622Z,45.00
2023-02-12T02:32:01.540Z,45.20
2023-02-12T02:33:01.499Z,44.90
2023-02-12T02:34:01.458Z,44.70
2023-02-12T02:35:01.503Z,44.70
2023-02-12T02:36:01.457Z,45.00
2023-02-12T02:37:01.524Z,44.40
2023-02-12T02:38:01.429Z,46.00
2023-02-12T02:39:01.436Z,44.50
2023-02-12T02:40:01.425Z,46.30
2023-02-12T02:41:01.416Z,45.20
2023-02-12T02:42:01.412Z,45.10
2023-02-12T02:43:01.384Z,46.10
2023-02-12T02:44:01.422Z,48.40
2023-02-12T02:45:01.409Z,48.50
2023-02-12T02:46:01.372Z,50.20
2023-02-12T02:47:01.434Z,51.80
2023-02-12T02:48:01.375Z,54.50
2023-02-12T02:49:01.355Z,48.80
2023-02-12T02:50:01.372Z,47.40
2023-02-12T02:51:01.356Z,48.30
2023-02-12T02:52:02.340Z,47.70
2023-02-12T02:53:01.319Z,48.80
2023-02-12T02:54:01.298Z,49.50
2023-02-12T02:55:01.337Z,47.50
2023-02-12T02:56:01.288Z,45.60
2023-02-12T02:57:01.296Z,44.20
2023-02-12T02:58:02.300Z,44.70
2023-02-12T02:59:01.270Z,43.60
2023-02-12T03:00:01.310Z,45.70
2023-02-12T03:01:01.302Z,44.00
2023-02-12T03:02:01.249Z,44.30
2023-02-12T03:03:01.326Z,45.20
2023-02-12T03:04:01.228Z,44.80
2023-02-12T03:05:01.238Z,44.60
2023-02-12T03:06:01.464Z,45.90
2023-02-12T03:07:01.246Z,45.80
2023-02-12T03:08:01.221Z,46.60
2023-02-12T03:09:01.186Z,44.60
2023-02-12T03:10:01.177Z,46.50
2023-02-12T03:11:01.173Z,46.50
2023-02-12T03:12:01.163Z,46.70
2023-02-12T03:13:01.176Z,46.10
2023-02-12T03:14:01.172Z,46.40
2023-02-12T03:15:01.150Z,46.40
2023-02-12T03:16:01.174Z,47.00
2023-02-12T03:17:01.146Z,46.60
2023-02-12T03:18:01.162Z,47.10
2023-02-12T03:19:01.156Z,47.30
2023-02-12T03:20:01.213Z,45.00
2023-02-12T03:21:01.151Z,46.20
2023-02-12T03:22:01.123Z,47.40
2023-02-12T03:23:01.134Z,47.90
2023-02-12T03:24:01.078Z,48.40
2023-02-12T03:25:01.066Z,47.50
2023-02-12T03:26:01.076Z,47.60
2023-02-12T03:27:01.052Z,46.60
2023-02-12T03:28:01.103Z,47.70
2023-02-12T03:29:01.072Z,46.10
2023-02-12T03:30:01.021Z,45.80
2023-02-12T03:31:01.064Z,47.20
2023-02-12T03:32:01.025Z,46.70
2023-02-12T03:33:01.069Z,46.10
2023-02-12T03:34:01.002Z,46.50
2023-02-12T03:35:01.999Z,45.00
2023-02-12T03:36:01.012Z,43.90
2023-02-12T03:37:00.976Z,43.30
2023-02-12T03:38:01.003Z,42.90
2023-02-12T03:39:01.724Z,43.80
2023-02-12T03:40:01.121Z,44.70
2023-02-12T03:41:00.957Z,45.70
2023-02-12T03:42:00.930Z,45.10
2023-02-12T03:43:00.953Z,42.70
2023-02-12T03:44:00.999Z,44.20
2023-02-12T03:45:00.913Z,44.30
2023-02-12T03:46:00.998Z,43.30
2023-02-12T03:47:00.895Z,44.00
2023-02-12T03:48:00.887Z,44.30
2023-02-12T03:49:00.924Z,44.70
2023-02-12T03:50:00.912Z,43.80
2023-02-12T03:51:00.910Z,44.80
2023-02-12T03:52:00.858Z,44.10
2023-02-12T03:53:00.849Z,43.70
2023-02-12T03:54:00.861Z,43.30
2023-02-12T03:55:00.843Z,43.40
2023-02-12T03:56:00.840Z,43.10
2023-02-12T03:57:00.814Z,42.40
2023-02-12T03:58:00.847Z,42.70
2023-02-12T03:59:00.898Z,44.70
2023-02-12T04:00:00.793Z,43.70
2023-02-12T04:01:00.849Z,43.40
2023-02-12T04:02:00.844Z,43.70
2023-02-12T04:03:00.772Z,42.60
2023-02-12T04:04:00.883Z,42.70
2023-02-12T04:05:00.743Z,44.00
2023-02-12T04:06:00.740Z,43.40
2023-02-12T04:07:00.733Z,42.90
2023-02-12T04:08:00.742Z,42.30
2023-02-12T04:09:00.801Z,43.40
2023-02-12T04:10:00.782Z,44.50
2023-02-12T04:11:00.707Z,42.80
2023-02-12T04:12:00.720Z,42.60
2023-02-12T04:13:00.692Z,41.80
2023-02-12T04:14:00.746Z,41.90
2023-02-12T04:15:00.667Z,43.30
2023-02-12T04:16:00.735Z,43.50
2023-02-12T04:17:00.711Z,42.10
2023-02-12T04:18:00.661Z,43.20
2023-02-12T04:19:00.679Z,44.10
2023-02-12T04:20:00.639Z,40.70
2023-02-12T04:21:00.640Z,40.10
2023-02-12T04:22:00.670Z,38.40
2023-02-12T04:23:00.645Z,37.70
2023-02-12T04:24:00.633Z,37.90
2023-02-12T04:25:00.635Z,37.60
2023-02-12T04:26:00.582Z,38.00
2023-02-12T04:27:00.632Z,37.50
2023-02-12T04:28:00.685Z,37.80
2023-02-12T04:29:00.567Z,37.70
2023-02-12T04:30:01.229Z,36.60
2023-02-12T04:31:00.714Z,36.80
2023-02-12T04:32:00.553Z,35.90
2023-02-12T04:33:00.538Z,37.90
2023-02-12T04:34:00.560Z,37.30
2023-02-12T04:35:00.566Z,37.40
2023-02-12T04:36:00.555Z,37.60
2023-02-12T04:37:00.552Z,37.00
2023-02-12T04:38:00.516Z,37.00
2023-02-12T04:39:00.533Z,37.30
2023-02-12T04:40:00.605Z,38.30
2023-02-12T04:41:00.530Z,36.00
2023-02-12T04:42:00.529Z,36.60
2023-02-12T04:43:00.483Z,37.00
2023-02-12T04:44:00.489Z,38.10
2023-02-12T04:45:00.508Z,37.40
2023-02-12T04:46:00.490Z,38.80
2023-02-12T04:47:01.432Z,40.50
2023-02-12T04:48:00.442Z,43.40
2023-02-12T04:49:00.422Z,44.10
2023-02-12T04:50:00.489Z,44.80
2023-02-12T04:51:00.442Z,45.30
2023-02-12T04:52:00.423Z,47.60
2023-02-12T04:53:00.399Z,46.90
2023-02-12T04:54:00.389Z,47.30
2023-02-12T04:55:00.414Z,48.60
2023-02-12T04:56:00.383Z,49.10
2023-02-12T04:57:00.427Z,48.10
2023-02-12T04:58:00.361Z,49.60
2023-02-12T04:59:00.350Z,49.10
2023-02-12T05:00:00.407Z,49.50
2023-02-12T05:01:00.463Z,50.20
2023-02-12T05:02:00.365Z,49.90
2023-02-12T05:03:00.313Z,52.30
2023-02-12T05:04:00.343Z,52.30
2023-02-12T05:05:00.434Z,51.20
2023-02-12T05:06:00.318Z,51.10
2023-02-12T05:07:00.322Z,53.70
2023-02-12T05:08:00.297Z,52.30
2023-02-12T05:09:00.305Z,53.90
2023-02-12T05:10:32.200Z,52.10
2023-02-12T05:11:00.244Z,54.70
2023-02-12T05:12:00.241Z,52.30
2023-02-12T05:13:00.227Z,53.30
2023-02-12T05:14:00.229Z,52.70
2023-02-12T05:15:00.247Z,51.60
2023-02-12T05:16:00.282Z,52.50
2023-02-12T05:17:00.198Z,55.40
2023-02-12T05:18:00.228Z,55.00
2023-02-12T05:19:00.192Z,54.40
2023-02-12T05:20:00.206Z,52.50
2023-02-12T05:21:00.170Z,54.20
2023-02-12T05:22:00.168Z,54.70
2023-02-12T05:23:00.170Z,55.00
2023-02-12T05:24:00.153Z,53.10
2023-02-12T05:25:00.185Z,54.70
2023-02-12T05:26:00.155Z,55.10
2023-02-12T05:27:00.137Z,54.70
2023-02-12T05:28:00.230Z,53.20
2023-02-12T05:29:00.112Z,54.40
2023-02-12T05:30:00.426Z,54.00
2023-02-12T05:31:00.244Z,54.60
2023-02-12T05:32:00.202Z,59.90
2023-02-12T05:33:00.106Z,59.20
2023-02-12T05:34:00.135Z,59.70
2023-02-12T05:35:00.176Z,57.80
2023-02-12T05:36:00.103Z,56.60
2023-02-12T05:37:00.051Z,54.80
2023-02-12T05:38:00.046Z,58.80
2023-02-12T05:39:00.043Z,55.80
2023-02-12T05:40:00.147Z,58.40
2023-02-12T05:41:00.025Z,54.60
2023-02-12T05:42:00.018Z,55.50
2023-02-12T05:43:00.013Z,48.50
2023-02-12T05:44:00.004Z,47.80
2023-02-12T05:45:00.009Z,49.20
2023-02-12T05:45:59.996Z,50.60
2023-02-12T05:46:59.980Z,49.70
2023-02-12T05:47:59.970Z,48.20
2023-02-12T05:48:59.963Z,48.10
2023-02-12T05:49:59.978Z,45.90
2023-02-12T05:50:59.954Z,45.40
2023-02-12T05:51:59.934Z,44.60
2023-02-12T05:52:59.971Z,44.40
2023-02-12T05:53:59.952Z,49.10
2023-02-12T05:54:59.939Z,46.50
2023-02-12T05:55:59.909Z,44.20
2023-02-12T05:56:59.899Z,46.40
2023-02-12T05:57:59.905Z,46.90
2023-02-12T05:58:59.879Z,46.50
2023-02-12T06:00:00.298Z,48.90
2023-02-12T06:00:59.910Z,47.70
2023-02-12T06:01:59.851Z,48.10
2023-02-12T06:02:59.879Z,46.50
2023-02-12T06:03:59.885Z,48.70
2023-02-12T06:04:59.869Z,49.20
2023-02-12T06:05:59.826Z,46.90
2023-02-12T06:06:59.830Z,56.20
2023-02-12T06:07:59.821Z,53.50
2023-02-12T06:08:59.838Z,56.70
2023-02-12T06:09:59.867Z,56.20
2023-02-12T06:10:59.786Z,57.80
2023-02-12T06:11:59.782Z,57.30
2023-02-12T06:12:59.796Z,56.00
2023-02-12T06:13:59.770Z,57.80
2023-02-12T06:14:59.804Z,59.30
2023-02-12T06:16:00.047Z,58.60
2023-02-12T06:16:59.745Z,62.00
2023-02-12T06:17:59.734Z,62.10
2023-02-12T06:18:59.762Z,58.90
2023-02-12T06:19:59.730Z,58.80
2023-02-12T06:20:59.740Z,58.30
2023-02-12T06:21:59.721Z,57.90
2023-02-12T06:22:59.698Z,54.60
2023-02-12T06:23:59.707Z,58.30
2023-02-12T06:24:59.676Z,59.50
2023-02-12T06:25:59.713Z,57.90
2023-02-12T06:26:59.666Z,63.70
2023-02-12T06:27:59.732Z,58.60
2023-02-12T06:28:59.647Z,58.20
2023-02-12T06:29:59.657Z,58.50
2023-02-12T06:30:59.788Z,57.90
2023-02-12T06:31:59.718Z,58.10
2023-02-12T06:32:59.618Z,62.70
2023-02-12T06:33:59.616Z,55.50
2023-02-12T06:34:59.603Z,57.50
2023-02-12T06:35:59.647Z,53.60
2023-02-12T06:36:59.607Z,55.70
2023-02-12T06:37:59.586Z,55.70
2023-02-12T06:38:59.582Z,52.10
2023-02-12T06:39:59.578Z,51.00
2023-02-12T06:40:59.594Z,49.80
2023-02-12T06:41:59.560Z,47.80
2023-02-12T06:42:59.554Z,47.60
2023-02-12T06:44:00.266Z,47.10
2023-02-12T06:44:59.560Z,48.10
2023-02-12T06:45:59.554Z,48.90
2023-02-12T06:46:59.572Z,49.40
2023-02-12T06:47:59.526Z,50.30
2023-02-12T06:48:59.524Z,49.30
2023-02-12T06:49:59.508Z,48.00
2023-02-12T06:50:59.516Z,48.00
2023-02-12T06:52:01.622Z,48.90
2023-02-12T06:52:59.494Z,50.40
2023-02-12T06:53:59.470Z,50.90
2023-02-12T06:54:59.458Z,50.30
2023-02-12T06:55:59.485Z,47.50
2023-02-12T06:56:59.442Z,48.70
2023-02-12T06:57:59.455Z,46.60
2023-02-12T06:58:59.444Z,50.10
2023-02-12T06:59:59.442Z,53.80
2023-02-12T07:00:59.503Z,57.20
2023-02-12T07:01:59.423Z,59.80
2023-02-12T07:02:59.404Z,61.50
2023-02-12T07:03:59.438Z,60.30
2023-02-12T07:04:59.393Z,56.30
2023-02-12T07:05:59.413Z,56.10
2023-02-12T07:06:59.370Z,56.30
2023-02-12T07:07:59.371Z,56.50
2023-02-12T07:08:59.361Z,56.70
2023-02-12T07:09:59.413Z,57.30
2023-02-12T07:10:59.369Z,56.70
2023-02-12T07:11:59.332Z,56.10
2023-02-12T07:12:59.325Z,55.80
2023-02-12T07:13:59.335Z,57.80
2023-02-12T07:14:59.335Z,56.40
2023-02-12T07:15:59.531Z,57.40
2023-02-12T07:16:59.436Z,58.00
2023-02-12T07:17:59.297Z,57.60
2023-02-12T07:18:59.278Z,59.10
2023-02-12T07:19:59.272Z,60.80
2023-02-12T07:20:59.297Z,58.50
2023-02-12T07:21:59.251Z,55.50
2023-02-12T07:22:59.251Z,55.50
2023-02-12T07:23:59.240Z,56.60
2023-02-12T07:24:59.227Z,56.20
2023-02-12T07:25:59.296Z,59.60
2023-02-12T07:26:59.220Z,56.60
2023-02-12T07:27:59.302Z,60.00
2023-02-12T07:28:59.217Z,58.30
2023-02-12T07:29:59.203Z,58.40
2023-02-12T07:30:59.238Z,58.20
2023-02-12T07:31:59.207Z,55.60
2023-02-12T07:32:59.182Z,55.40
2023-02-12T07:33:59.176Z,54.80
2023-02-12T07:34:59.156Z,55.50
2023-02-12T07:36:00.176Z,56.40
2023-02-12T07:36:59.146Z,54.70
2023-02-12T07:37:59.162Z,57.90
2023-02-12T07:38:59.131Z,54.80
2023-02-12T07:39:59.151Z,55.50
2023-02-12T07:40:59.155Z,53.40
2023-02-12T07:41:59.144Z,55.50
2023-02-12T07:42:59.115Z,58.60
2023-02-12T07:43:59.151Z,60.70
2023-02-12T07:44:59.094Z,55.50
2023-02-12T07:45:59.317Z,57.40
2023-02-12T07:46:59.090Z,55.90
2023-02-12T07:47:59.081Z,55.90
2023-02-12T07:48:59.185Z,55.20
2023-02-12T07:49:59.070Z,54.60
2023-02-12T07:50:59.102Z,53.80
2023-02-12T07:51:59.037Z,54.60
2023-02-12T07:52:59.034Z,55.70
2023-02-12T07:53:59.101Z,54.90
2023-02-12T07:54:59.028Z,54.30
2023-02-12T07:55:59.037Z,58.40
2023-02-12T07:56:59.046Z,53.90
2023-02-12T07:57:59.004Z,56.70
2023-02-12T07:58:59.000Z,55.50
2023-02-12T07:59:58.979Z,56.10
2023-02-12T08:00:59.002Z,53.50
2023-02-12T08:01:59.035Z,57.60
2023-02-12T08:02:58.971Z,55.70
2023-02-12T08:03:59.035Z,57.90
2023-02-12T08:04:58.951Z,57.00
2023-02-12T08:05:58.973Z,60.20
2023-02-12T08:06:58.933Z,57.20
2023-02-12T08:07:58.929Z,60.30
2023-02-12T08:08:58.961Z,58.20
2023-02-12T08:09:58.924Z,58.10
2023-02-12T08:10:58.927Z,57.70
2023-02-12T08:11:58.901Z,56.60
2023-02-12T08:12:58.879Z,61.70
2023-02-12T08:13:58.872Z,60.00
2023-02-12T08:14:58.865Z,64.70
2023-02-12T08:15:58.887Z,60.70
2023-02-12T08:16:58.916Z,59.10
2023-02-12T08:17:58.846Z,57.40
2023-02-12T08:19:10.510Z,51.20
2023-02-12T08:20:00.822Z,48.60
2023-02-12T08:20:58.850Z,47.40
2023-02-12T08:21:58.850Z,49.00
2023-02-12T08:22:58.897Z,46.60
2023-02-12T08:23:58.799Z,46.20
2023-02-12T08:24:58.794Z,46.40
2023-02-12T08:25:58.817Z,44.80
2023-02-12T08:26:58.775Z,44.40
2023-02-12T08:27:58.866Z,45.20
2023-02-12T08:28:58.756Z,44.90
2023-02-12T08:29:58.772Z,42.80
2023-02-12T08:30:58.826Z,41.60
2023-02-12T08:31:58.900Z,43.10
2023-02-12T08:32:58.738Z,43.10
2023-02-12T08:33:58.732Z,43.50
2023-02-12T08:34:58.717Z,42.10
2023-02-12T08:36:00.236Z,42.20
2023-02-12T08:36:59.706Z,44.10
2023-02-12T08:37:58.690Z,44.30
2023-02-12T08:38:58.691Z,43.70
2023-02-12T08:39:58.680Z,42.40
2023-02-12T08:40:58.721Z,44.40
2023-02-12T08:41:58.689Z,43.30
2023-02-12T08:42:58.649Z,44.20
2023-02-12T08:43:58.642Z,43.20
2023-02-12T08:44:58.635Z,43.90
2023-02-12T08:45:58.964Z,42.70
2023-02-12T08:46:58.635Z,44.20
2023-02-12T08:47:58.611Z,43.60
2023-02-12T08:48:58.608Z,43.00
2023-02-12T08:49:58.599Z,42.10
2023-02-12T08:50:58.598Z,42.90
2023-02-12T08:51:58.612Z,42.50
2023-02-12T08:52:58.574Z,46.70
2023-02-12T08:53:58.574Z,45.30
2023-02-12T08:54:58.554Z,46.60
2023-02-12T08:55:58.548Z,49.00
2023-02-12T08:56:58.933Z,47.40
2023-02-12T08:57:58.551Z,49.00
2023-02-12T08:58:58.523Z,49.10
2023-02-12T08:59:58.515Z,50.50
2023-02-12T09:00:58.527Z,49.00
2023-02-12T09:01:58.520Z,51.60
2023-02-12T09:02:58.488Z,51.30
2023-02-12T09:03:58.504Z,50.70
2023-02-12T09:04:58.484Z,50.80
2023-02-12T09:05:58.682Z,53.00
2023-02-12T09:06:58.548Z,52.90
2023-02-12T09:07:58.442Z,52.80
2023-02-12T09:08:59.448Z,54.00
2023-02-12T09:09:58.434Z,53.70
2023-02-12T09:10:58.443Z,54.80
2023-02-12T09:11:58.451Z,54.60
2023-02-12T09:12:58.416Z,58.30
2023-02-12T09:13:58.397Z,56.10
2023-02-12T09:14:58.392Z,55.80
2023-02-12T09:15:58.672Z,56.90
2023-02-12T09:16:58.574Z,56.80
2023-02-12T09:17:58.388Z,56.40
2023-02-12T09:18:58.368Z,56.90
2023-02-12T09:19:58.358Z,56.40
2023-02-12T09:20:58.912Z,55.60
2023-02-12T09:21:58.383Z,56.20
2023-02-12T09:22:58.336Z,57.10
2023-02-12T09:23:58.338Z,57.70
2023-02-12T09:24:58.330Z,56.50
2023-02-12T09:25:58.655Z,55.90
2023-02-12T09:26:58.341Z,53.80
2023-02-12T09:27:58.329Z,47.90
2023-02-12T09:28:58.295Z,46.20
2023-02-12T09:29:58.294Z,45.60
2023-02-12T09:30:58.511Z,45.40
2023-02-12T09:31:58.348Z,45.30
2023-02-12T09:32:58.271Z,45.40
2023-02-12T09:33:58.278Z,46.70
2023-02-12T09:34:58.257Z,44.70
2023-02-12T09:35:58.388Z,44.50
2023-02-12T09:36:58.265Z,43.50
2023-02-12T09:37:58.283Z,42.80
2023-02-12T09:38:58.225Z,42.90
2023-02-12T09:39:58.227Z,44.10
2023-02-12T09:40:58.209Z,43.10
2023-02-12T09:41:58.229Z,43.70
2023-02-12T09:42:58.181Z,43.60
2023-02-12T09:43:58.175Z,43.20
2023-02-12T09:44:58.169Z,44.20
2023-02-12T09:45:58.693Z,43.80
2023-02-12T09:46:58.210Z,44.20
2023-02-12T09:47:58.167Z,42.80
2023-02-12T09:48:58.148Z,43.80
2023-02-12T09:49:58.140Z,43.40
2023-02-12T09:50:58.130Z,47.60
2023-02-12T09:51:58.109Z,47.80
2023-02-12T09:52:58.141Z,48.10
2023-02-12T09:53:58.137Z,50.70
2023-02-12T09:54:58.112Z,48.60
2023-02-12T09:55:58.395Z,49.80
2023-02-12T09:56:58.075Z,49.30
2023-02-12T09:57:58.102Z,49.40
2023-02-12T09:58:58.063Z,52.00
2023-02-12T09:59:58.077Z,52.40
2023-02-12T10:00:58.059Z,53.50
2023-02-12T10:01:58.044Z,51.80
2023-02-12T10:02:58.087Z,51.00
2023-02-12T10:03:58.075Z,50.30
2023-02-12T10:05:01.658Z,52.60
2023-02-12T10:05:59.072Z,51.30
2023-02-12T10:06:58.007Z,50.70
2023-02-12T10:07:58.026Z,50.90
2023-02-12T10:08:58.351Z,51.30
2023-02-12T10:09:57.982Z,51.60
2023-02-12T10:10:57.992Z,51.70
2023-02-12T10:11:58.004Z,51.00
2023-02-12T10:12:57.987Z,52.00
2023-02-12T10:13:57.948Z,51.30
2023-02-12T10:14:57.958Z,50.70
2023-02-12T10:15:58.317Z,49.00
2023-02-12T10:16:57.937Z,48.90
2023-02-12T10:17:57.953Z,48.60
2023-02-12T10:18:58.003Z,50.30
2023-02-12T10:19:57.910Z,48.80
2023-02-12T10:20:58.253Z,49.20
2023-02-12T10:21:57.905Z,49.20
2023-02-12T10:22:57.945Z,50.00
2023-02-12T10:23:57.879Z,48.60
2023-02-12T10:24:57.876Z,48.80
2023-02-12T10:25:58.059Z,49.20
2023-02-12T10:26:57.850Z,47.60
2023-02-12T10:27:58.904Z,46.90
2023-02-12T10:28:57.867Z,49.10
2023-02-12T10:29:57.828Z,46.90
2023-02-12T10:30:57.936Z,47.80
2023-02-12T10:32:58.855Z,47.20
2023-02-12T10:33:57.795Z,47.40
2023-02-12T10:34:57.816Z,47.00
2023-02-12T10:35:58.108Z,48.30
2023-02-12T10:36:57.770Z,47.20
2023-02-12T10:37:57.759Z,45.70
2023-02-12T10:38:57.781Z,46.30
2023-02-12T10:39:58.329Z,46.50
2023-02-12T10:40:57.744Z,46.00
2023-02-12T10:41:57.745Z,47.30
2023-02-12T10:42:57.728Z,46.90
2023-02-12T10:43:57.759Z,45.50
2023-02-12T10:44:57.705Z,44.70
2023-02-12T10:45:58.033Z,43.50
2023-02-12T10:46:57.791Z,44.30
2023-02-12T10:47:57.697Z,44.70
2023-02-12T10:48:57.705Z,43.40
2023-02-12T10:49:57.673Z,44.10
2023-02-12T10:50:57.677Z,44.70
2023-02-12T10:51:57.658Z,43.30
2023-02-12T10:52:57.657Z,44.30
2023-02-12T10:53:57.681Z,44.60
2023-02-12T10:54:57.637Z,43.90
2023-02-12T10:55:58.140Z,44.50
2023-02-12T10:56:57.626Z,45.60
2023-02-12T10:57:57.616Z,44.20
2023-02-12T10:58:57.638Z,45.20
2023-02-12T10:59:57.607Z,44.30
2023-02-12T11:00:57.605Z,44.30
2023-02-12T11:01:57.650Z,44.90
2023-02-12T11:02:57.581Z,43.80
2023-02-12T11:03:57.608Z,43.50
2023-02-12T11:04:57.618Z,43.70
2023-02-12T11:05:57.932Z,42.80
2023-02-12T11:06:57.551Z,43.90
2023-02-12T11:07:57.554Z,43.20
2023-02-12T11:08:57.564Z,42.30
2023-02-12T11:09:57.539Z,41.80
2023-02-12T11:11:29.471Z,42.30
2023-02-12T11:11:57.512Z,42.60
2023-02-12T11:12:57.505Z,42.20
2023-02-12T11:13:57.502Z,41.50
2023-02-12T11:14:57.535Z,43.00
2023-02-12T11:15:57.626Z,42.10
2023-02-12T11:16:57.477Z,41.80
2023-02-12T11:17:57.508Z,42.40
2023-02-12T11:18:57.468Z,42.30
2023-02-12T11:19:57.462Z,42.00
2023-02-12T11:20:57.474Z,42.50
2023-02-12T11:21:57.433Z,41.50
2023-02-12T11:22:57.473Z,41.80
2023-02-12T11:23:57.422Z,41.50
2023-02-12T11:24:57.542Z,41.60
2023-02-12T11:25:57.893Z,42.40
2023-02-12T11:26:57.404Z,42.30
2023-02-12T11:27:57.454Z,41.90
2023-02-12T11:28:57.564Z,40.80
2023-02-12T11:29:57.379Z,40.30
2023-02-12T11:30:57.445Z,39.70
2023-02-12T11:31:57.443Z,40.00
2023-02-12T11:32:57.352Z,39.00
2023-02-12T11:33:57.364Z,39.80
2023-02-12T11:34:57.365Z,39.00
2023-02-12T11:35:57.333Z,38.90
2023-02-12T11:36:57.553Z,38.90
2023-02-12T11:37:57.320Z,40.60
2023-02-12T11:38:57.332Z,39.10
2023-02-12T11:39:57.333Z,39.60
2023-02-12T11:40:57.503Z,39.60
2023-02-12T11:41:57.310Z,39.30
2023-02-12T11:42:57.276Z,39.50
2023-02-12T11:43:57.277Z,39.20
2023-02-12T11:44:57.311Z,39.50
2023-02-12T11:45:57.260Z,38.70
2023-02-12T11:46:57.334Z,38.60
2023-02-12T11:47:57.250Z,38.30
2023-02-12T11:48:57.240Z,38.90
2023-02-12T11:49:57.234Z,38.90
2023-02-12T11:50:57.239Z,38.60
2023-02-12T11:51:57.276Z,38.00
2023-02-12T11:52:57.223Z,38.90
2023-02-12T11:53:57.206Z,38.90
2023-02-12T11:54:57.191Z,39.30
2023-02-12T11:55:57.187Z,40.40
2023-02-12T11:56:57.221Z,38.90
2023-02-12T11:57:57.165Z,39.30
2023-02-12T11:58:57.159Z,38.50
2023-02-12T11:59:57.151Z,38.00
2023-02-12T12:00:57.133Z,37.70
2023-02-12T12:01:57.178Z,38.70
2023-02-12T12:02:57.177Z,37.30
2023-02-12T12:03:57.120Z,36.80
2023-02-12T12:04:57.102Z,36.50
2023-02-12T12:05:57.449Z,35.80
2023-02-12T12:06:57.109Z,35.40
2023-02-12T12:07:57.107Z,34.20
2023-02-12T12:08:57.112Z,35.40
2023-02-12T12:09:57.106Z,35.50
2023-02-12T12:10:57.120Z,36.10
2023-02-12T12:11:57.572Z,33.40
2023-02-12T12:12:57.064Z,33.60
2023-02-12T12:13:57.064Z,33.20
2023-02-12T12:14:57.029Z,35.20
2023-02-12T12:15:57.546Z,34.20
2023-02-12T12:16:57.037Z,35.60
2023-02-12T12:17:57.005Z,34.30
2023-02-12T12:18:57.016Z,31.30
2023-02-12T12:19:57.019Z,30.10
2023-02-12T12:20:56.983Z,29.50
2023-02-12T12:21:56.992Z,30.80
2023-02-12T12:22:56.979Z,37.10
2023-02-12T12:23:56.949Z,30.80
2023-02-12T12:24:56.955Z,31.80
2023-02-12T12:25:57.221Z,29.50
2023-02-12T12:26:56.971Z,31.00
2023-02-12T12:27:56.952Z,32.10
2023-02-12T12:28:56.918Z,31.00
2023-02-12T12:29:56.915Z,28.80
2023-02-12T12:30:56.947Z,29.40
2023-02-12T12:31:56.956Z,28.40
2023-02-12T12:32:56.885Z,27.90
2023-02-12T12:33:56.893Z,25.80
2023-02-12T12:34:56.868Z,26.80
2023-02-12T12:35:57.220Z,28.20
2023-02-12T12:36:56.855Z,27.30
2023-02-12T12:37:56.867Z,27.00
2023-02-12T12:38:56.843Z,25.90
2023-02-12T12:39:56.852Z,26.00
2023-02-12T12:40:56.820Z,26.50
2023-02-12T12:41:56.846Z,25.80
2023-02-12T12:42:56.836Z,26.50
2023-02-12T12:43:56.858Z,25.40
2023-02-12T12:44:56.785Z,25.40
2023-02-12T12:45:57.141Z,25.90
2023-02-12T12:46:57.768Z,26.20
2023-02-12T12:47:56.785Z,26.20
2023-02-12T12:48:56.762Z,26.10
2023-02-12T12:49:56.745Z,26.00
2023-02-12T12:50:56.741Z,25.60
2023-02-12T12:51:56.726Z,26.90
2023-02-12T12:52:56.759Z,25.70